sensor_id;sensor_type;location;lat;lon;timestamp;temperature;humidity
10062;DHT22;5070;52.382;5.270;2023-05-07T00:00:39;21.90;91.60
10062;DHT22;5070;52.382;5.270;2023-05-07T00:03:09;21.90;91.60
10062;DHT22;5070;52.382;5.270;2023-05-07T00:05:38;21.90;91.60
10062;DHT22;5070;52.382;5.270;2023-05-07T00:08:06;21.90;91.60
10062;DHT22;5070;52.382;5.270;2023-05-07T00:10:34;21.90;91.50
10062;DHT22;5070;52.382;5.270;2023-05-07T00:13:01;21.90;91.50
10062;DHT22;5070;52.382;5.270;2023-05-07T00:15:29;21.90;91.50
10062;DHT22;5070;52.382;5.270;2023-05-07T00:17:58;21.90;91.50
10062;DHT22;5070;52.382;5.270;2023-05-07T00:20:27;21.90;91.50
10062;DHT22;5070;52.382;5.270;2023-05-07T00:22:55;21.80;91.40
10062;DHT22;5070;52.382;5.270;2023-05-07T00:25:23;21.80;91.40
10062;DHT22;5070;52.382;5.270;2023-05-07T00:27:51;21.80;91.40
10062;DHT22;5070;52.382;5.270;2023-05-07T00:30:20;21.80;91.30
10062;DHT22;5070;52.382;5.270;2023-05-07T00:32:48;21.80;91.30
10062;DHT22;5070;52.382;5.270;2023-05-07T00:35:17;21.80;91.30
10062;DHT22;5070;52.382;5.270;2023-05-07T00:37:46;21.80;91.30
10062;DHT22;5070;52.382;5.270;2023-05-07T00:40:15;21.80;91.30
10062;DHT22;5070;52.382;5.270;2023-05-07T00:42:43;21.80;91.30
10062;DHT22;5070;52.382;5.270;2023-05-07T00:45:13;21.80;91.20
10062;DHT22;5070;52.382;5.270;2023-05-07T00:47:41;21.80;91.30
10062;DHT22;5070;52.382;5.270;2023-05-07T00:50:09;21.70;91.20
10062;DHT22;5070;52.382;5.270;2023-05-07T00:52:39;21.70;91.20
10062;DHT22;5070;52.382;5.270;2023-05-07T00:55:10;21.70;91.20
10062;DHT22;5070;52.382;5.270;2023-05-07T00:57:40;21.80;91.20
10062;DHT22;5070;52.382;5.270;2023-05-07T01:00:09;21.70;91.20
10062;DHT22;5070;52.382;5.270;2023-05-07T01:02:39;21.70;91.10
10062;DHT22;5070;52.382;5.270;2023-05-07T01:05:10;21.70;91.10
10062;DHT22;5070;52.382;5.270;2023-05-07T01:07:40;21.70;91.10
10062;DHT22;5070;52.382;5.270;2023-05-07T01:10:10;21.70;91.00
10062;DHT22;5070;52.382;5.270;2023-05-07T01:12:40;21.70;91.10
10062;DHT22;5070;52.382;5.270;2023-05-07T01:15:10;21.70;91.10
10062;DHT22;5070;52.382;5.270;2023-05-07T01:17:40;21.70;91.10
10062;DHT22;5070;52.382;5.270;2023-05-07T01:20:15;21.70;91.10
10062;DHT22;5070;52.382;5.270;2023-05-07T01:22:46;21.60;91.10
10062;DHT22;5070;52.382;5.270;2023-05-07T01:25:14;21.60;91.00
10062;DHT22;5070;52.382;5.270;2023-05-07T01:27:48;21.60;91.00
10062;DHT22;5070;52.382;5.270;2023-05-07T01:30:17;21.70;91.00
10062;DHT22;5070;52.382;5.270;2023-05-07T01:32:56;21.60;91.00
10062;DHT22;5070;52.382;5.270;2023-05-07T01:35:27;21.60;90.90
10062;DHT22;5070;52.382;5.270;2023-05-07T01:38:03;21.60;90.90
10062;DHT22;5070;52.382;5.270;2023-05-07T01:40:39;21.60;90.90
10062;DHT22;5070;52.382;5.270;2023-05-07T01:43:07;21.60;90.90
10062;DHT22;5070;52.382;5.270;2023-05-07T01:45:36;21.60;90.90
10062;DHT22;5070;52.382;5.270;2023-05-07T01:48:05;21.60;90.90
10062;DHT22;5070;52.382;5.270;2023-05-07T01:50:34;21.60;90.90
10062;DHT22;5070;52.382;5.270;2023-05-07T01:53:03;21.60;90.80
10062;DHT22;5070;52.382;5.270;2023-05-07T01:55:31;21.60;90.80
10062;DHT22;5070;52.382;5.270;2023-05-07T01:57:59;21.60;90.80
10062;DHT22;5070;52.382;5.270;2023-05-07T02:00:27;21.60;90.80
10062;DHT22;5070;52.382;5.270;2023-05-07T02:02:55;21.60;90.70
10062;DHT22;5070;52.382;5.270;2023-05-07T02:05:33;21.60;90.70
10062;DHT22;5070;52.382;5.270;2023-05-07T02:08:08;21.60;90.70
10062;DHT22;5070;52.382;5.270;2023-05-07T02:10:36;21.60;90.70
10062;DHT22;5070;52.382;5.270;2023-05-07T02:13:05;21.60;90.70
10062;DHT22;5070;52.382;5.270;2023-05-07T02:15:34;21.60;91.00
10062;DHT22;5070;52.382;5.270;2023-05-07T02:18:04;21.60;90.60
10062;DHT22;5070;52.382;5.270;2023-05-07T02:20:33;21.60;90.60
10062;DHT22;5070;52.382;5.270;2023-05-07T02:23:01;21.60;90.60
10062;DHT22;5070;52.382;5.270;2023-05-07T02:25:31;21.60;90.60
10062;DHT22;5070;52.382;5.270;2023-05-07T02:27:59;21.60;90.50
10062;DHT22;5070;52.382;5.270;2023-05-07T02:30:38;21.60;90.60
10062;DHT22;5070;52.382;5.270;2023-05-07T02:33:07;21.60;90.50
10062;DHT22;5070;52.382;5.270;2023-05-07T02:35:36;21.60;90.80
10062;DHT22;5070;52.382;5.270;2023-05-07T02:38:04;21.60;90.50
10062;DHT22;5070;52.382;5.270;2023-05-07T02:40:34;21.50;90.50
10062;DHT22;5070;52.382;5.270;2023-05-07T02:43:07;21.50;90.50
10062;DHT22;5070;52.382;5.270;2023-05-07T02:45:35;21.50;90.40
10062;DHT22;5070;52.382;5.270;2023-05-07T02:48:05;21.50;90.70
10062;DHT22;5070;52.382;5.270;2023-05-07T02:50:34;21.50;90.40
10062;DHT22;5070;52.382;5.270;2023-05-07T02:53:02;21.50;90.40
10062;DHT22;5070;52.382;5.270;2023-05-07T02:55:34;21.50;90.30
10062;DHT22;5070;52.382;5.270;2023-05-07T02:58:02;21.50;90.30
10062;DHT22;5070;52.382;5.270;2023-05-07T03:00:33;21.50;90.30
10062;DHT22;5070;52.382;5.270;2023-05-07T03:03:21;21.50;90.30
10062;DHT22;5070;52.382;5.270;2023-05-07T03:05:49;21.50;90.30
10062;DHT22;5070;52.382;5.270;2023-05-07T03:08:17;21.50;90.30
10062;DHT22;5070;52.382;5.270;2023-05-07T03:10:46;21.50;90.30
10062;DHT22;5070;52.382;5.270;2023-05-07T03:13:15;21.50;90.30
10062;DHT22;5070;52.382;5.270;2023-05-07T03:15:43;21.50;90.20
10062;DHT22;5070;52.382;5.270;2023-05-07T03:18:11;21.40;90.20
10062;DHT22;5070;52.382;5.270;2023-05-07T03:20:39;21.40;90.20
10062;DHT22;5070;52.382;5.270;2023-05-07T03:23:07;21.40;90.20
10062;DHT22;5070;52.382;5.270;2023-05-07T03:25:35;21.40;90.20
10062;DHT22;5070;52.382;5.270;2023-05-07T03:28:05;21.40;90.20
10062;DHT22;5070;52.382;5.270;2023-05-07T03:30:48;21.40;90.30
10062;DHT22;5070;52.382;5.270;2023-05-07T03:33:16;21.40;90.20
10062;DHT22;5070;52.382;5.270;2023-05-07T03:35:44;21.40;90.20
10062;DHT22;5070;52.382;5.270;2023-05-07T03:38:18;21.40;90.20
10062;DHT22;5070;52.382;5.270;2023-05-07T03:40:46;21.40;90.10
10062;DHT22;5070;52.382;5.270;2023-05-07T03:43:16;21.40;90.20
10062;DHT22;5070;52.382;5.270;2023-05-07T03:45:49;21.40;90.10
10062;DHT22;5070;52.382;5.270;2023-05-07T03:48:22;21.40;90.10
10062;DHT22;5070;52.382;5.270;2023-05-07T03:50:52;21.40;90.10
10062;DHT22;5070;52.382;5.270;2023-05-07T03:53:20;21.40;90.10
10062;DHT22;5070;52.382;5.270;2023-05-07T03:55:51;21.40;90.10
10062;DHT22;5070;52.382;5.270;2023-05-07T03:58:22;21.40;90.10
10062;DHT22;5070;52.382;5.270;2023-05-07T04:00:51;21.30;90.10
10062;DHT22;5070;52.382;5.270;2023-05-07T04:03:24;21.30;90.10
10062;DHT22;5070;52.382;5.270;2023-05-07T04:05:52;21.30;90.10
10062;DHT22;5070;52.382;5.270;2023-05-07T04:08:21;21.40;90.10
10062;DHT22;5070;52.382;5.270;2023-05-07T04:10:54;21.30;90.40
10062;DHT22;5070;52.382;5.270;2023-05-07T04:13:30;21.30;90.10
10062;DHT22;5070;52.382;5.270;2023-05-07T04:16:04;21.30;90.00
10062;DHT22;5070;52.382;5.270;2023-05-07T04:18:35;21.30;90.00
10062;DHT22;5070;52.382;5.270;2023-05-07T04:21:03;21.30;90.00
10062;DHT22;5070;52.382;5.270;2023-05-07T04:23:34;21.30;90.00
10062;DHT22;5070;52.382;5.270;2023-05-07T04:26:07;21.30;90.00
10062;DHT22;5070;52.382;5.270;2023-05-07T04:28:40;21.30;90.00
10062;DHT22;5070;52.382;5.270;2023-05-07T04:31:08;21.30;89.90
10062;DHT22;5070;52.382;5.270;2023-05-07T04:33:40;21.30;89.90
10062;DHT22;5070;52.382;5.270;2023-05-07T04:36:12;21.30;90.00
10062;DHT22;5070;52.382;5.270;2023-05-07T04:38:49;21.30;89.90
10062;DHT22;5070;52.382;5.270;2023-05-07T04:41:18;21.30;90.00
10062;DHT22;5070;52.382;5.270;2023-05-07T04:43:54;21.30;90.00
10062;DHT22;5070;52.382;5.270;2023-05-07T04:46:24;21.30;89.90
10062;DHT22;5070;52.382;5.270;2023-05-07T04:48:54;21.30;89.90
10062;DHT22;5070;52.382;5.270;2023-05-07T04:51:22;21.30;90.00
10062;DHT22;5070;52.382;5.270;2023-05-07T04:53:50;21.30;89.90
10062;DHT22;5070;52.382;5.270;2023-05-07T04:56:20;21.30;89.90
10062;DHT22;5070;52.382;5.270;2023-05-07T04:58:51;21.30;89.90
10062;DHT22;5070;52.382;5.270;2023-05-07T05:01:25;21.30;89.90
10062;DHT22;5070;52.382;5.270;2023-05-07T05:03:53;21.30;89.80
10062;DHT22;5070;52.382;5.270;2023-05-07T05:06:21;21.30;89.80
10062;DHT22;5070;52.382;5.270;2023-05-07T05:08:50;21.30;89.70
10062;DHT22;5070;52.382;5.270;2023-05-07T05:11:18;21.30;89.70
10062;DHT22;5070;52.382;5.270;2023-05-07T05:13:47;21.30;89.60
10062;DHT22;5070;52.382;5.270;2023-05-07T05:16:19;21.30;89.60
10062;DHT22;5070;52.382;5.270;2023-05-07T05:18:49;21.30;89.60
10062;DHT22;5070;52.382;5.270;2023-05-07T05:21:18;21.30;89.60
10062;DHT22;5070;52.382;5.270;2023-05-07T05:23:49;21.30;89.60
10062;DHT22;5070;52.382;5.270;2023-05-07T05:26:20;21.30;89.60
10062;DHT22;5070;52.382;5.270;2023-05-07T05:28:48;21.30;89.60
10062;DHT22;5070;52.382;5.270;2023-05-07T05:31:20;21.30;89.50
10062;DHT22;5070;52.382;5.270;2023-05-07T05:33:50;21.30;89.40
10062;DHT22;5070;52.382;5.270;2023-05-07T05:36:18;21.30;89.30
10062;DHT22;5070;52.382;5.270;2023-05-07T05:38:48;21.30;89.30
10062;DHT22;5070;52.382;5.270;2023-05-07T05:41:17;21.30;89.30
10062;DHT22;5070;52.382;5.270;2023-05-07T05:43:45;21.30;89.30
10062;DHT22;5070;52.382;5.270;2023-05-07T05:46:13;21.30;89.30
10062;DHT22;5070;52.382;5.270;2023-05-07T05:48:41;21.30;88.80
10062;DHT22;5070;52.382;5.270;2023-05-07T05:51:12;21.30;89.30
10062;DHT22;5070;52.382;5.270;2023-05-07T05:53:40;21.30;89.00
10062;DHT22;5070;52.382;5.270;2023-05-07T05:56:08;21.30;89.50
10062;DHT22;5070;52.382;5.270;2023-05-07T05:58:38;21.30;89.20
10062;DHT22;5070;52.382;5.270;2023-05-07T06:01:07;21.30;89.20
10062;DHT22;5070;52.382;5.270;2023-05-07T06:03:36;21.30;89.30
10062;DHT22;5070;52.382;5.270;2023-05-07T06:06:08;21.30;89.30
10062;DHT22;5070;52.382;5.270;2023-05-07T06:08:38;21.30;89.30
10062;DHT22;5070;52.382;5.270;2023-05-07T06:11:09;21.30;89.40
10062;DHT22;5070;52.382;5.270;2023-05-07T06:13:40;21.30;89.20
10062;DHT22;5070;52.382;5.270;2023-05-07T06:16:08;21.30;89.60
10062;DHT22;5070;52.382;5.270;2023-05-07T06:18:36;21.30;89.50
10062;DHT22;5070;52.382;5.270;2023-05-07T06:21:04;21.30;89.50
10062;DHT22;5070;52.382;5.270;2023-05-07T06:23:34;21.30;90.00
10062;DHT22;5070;52.382;5.270;2023-05-07T06:26:04;21.30;89.00
10062;DHT22;5070;52.382;5.270;2023-05-07T06:28:37;21.30;89.80
10062;DHT22;5070;52.382;5.270;2023-05-07T06:31:13;21.30;89.00
10062;DHT22;5070;52.382;5.270;2023-05-07T06:33:46;21.30;89.40
10062;DHT22;5070;52.382;5.270;2023-05-07T06:36:14;21.30;89.30
10062;DHT22;5070;52.382;5.270;2023-05-07T06:38:44;21.30;88.60
10062;DHT22;5070;52.382;5.270;2023-05-07T06:41:13;21.30;89.30
10062;DHT22;5070;52.382;5.270;2023-05-07T06:43:42;21.30;89.50
10062;DHT22;5070;52.382;5.270;2023-05-07T06:46:29;21.30;89.30
10062;DHT22;5070;52.382;5.270;2023-05-07T06:48:57;21.30;88.90
10062;DHT22;5070;52.382;5.270;2023-05-07T06:51:27;21.30;88.90
10062;DHT22;5070;52.382;5.270;2023-05-07T06:53:57;21.30;89.40
10062;DHT22;5070;52.382;5.270;2023-05-07T06:56:28;21.30;90.00
10062;DHT22;5070;52.382;5.270;2023-05-07T06:58:57;21.30;89.70
10062;DHT22;5070;52.382;5.270;2023-05-07T07:01:25;21.30;90.00
10062;DHT22;5070;52.382;5.270;2023-05-07T07:03:53;21.30;90.20
10062;DHT22;5070;52.382;5.270;2023-05-07T07:06:22;21.30;90.10
10062;DHT22;5070;52.382;5.270;2023-05-07T07:08:50;21.30;89.70
10062;DHT22;5070;52.382;5.270;2023-05-07T07:11:19;21.30;89.00
10062;DHT22;5070;52.382;5.270;2023-05-07T07:13:52;21.30;89.90
10062;DHT22;5070;52.382;5.270;2023-05-07T07:16:21;21.30;89.50
10062;DHT22;5070;52.382;5.270;2023-05-07T07:18:50;21.30;89.20
10062;DHT22;5070;52.382;5.270;2023-05-07T07:21:19;21.30;90.10
10062;DHT22;5070;52.382;5.270;2023-05-07T07:23:47;21.30;90.10
10062;DHT22;5070;52.382;5.270;2023-05-07T07:26:17;21.30;89.80
10062;DHT22;5070;52.382;5.270;2023-05-07T07:28:47;21.40;89.50
10062;DHT22;5070;52.382;5.270;2023-05-07T07:31:20;21.40;90.00
10062;DHT22;5070;52.382;5.270;2023-05-07T07:33:50;21.40;89.90
10062;DHT22;5070;52.382;5.270;2023-05-07T07:36:19;21.40;90.40
10062;DHT22;5070;52.382;5.270;2023-05-07T07:38:49;21.40;89.90
10062;DHT22;5070;52.382;5.270;2023-05-07T07:41:17;21.40;89.40
10062;DHT22;5070;52.382;5.270;2023-05-07T07:43:46;21.40;90.40
10062;DHT22;5070;52.382;5.270;2023-05-07T07:46:17;21.40;90.30
10062;DHT22;5070;52.382;5.270;2023-05-07T07:48:47;21.40;90.30
10062;DHT22;5070;52.382;5.270;2023-05-07T07:51:15;21.40;90.50
10062;DHT22;5070;52.382;5.270;2023-05-07T07:53:43;21.40;90.80
10062;DHT22;5070;52.382;5.270;2023-05-07T07:56:11;21.40;90.40
10062;DHT22;5070;52.382;5.270;2023-05-07T07:58:39;21.40;90.50
10062;DHT22;5070;52.382;5.270;2023-05-07T08:01:07;21.50;90.20
10062;DHT22;5070;52.382;5.270;2023-05-07T08:03:38;21.50;90.60
10062;DHT22;5070;52.382;5.270;2023-05-07T08:06:08;21.50;90.10
10062;DHT22;5070;52.382;5.270;2023-05-07T08:08:35;21.50;90.10
10062;DHT22;5070;52.382;5.270;2023-05-07T08:11:03;21.50;90.30
10062;DHT22;5070;52.382;5.270;2023-05-07T08:13:34;21.50;90.00
10062;DHT22;5070;52.382;5.270;2023-05-07T08:16:03;21.50;90.10
10062;DHT22;5070;52.382;5.270;2023-05-07T08:18:32;21.50;90.20
10062;DHT22;5070;52.382;5.270;2023-05-07T08:21:01;21.60;90.70
10062;DHT22;5070;52.382;5.270;2023-05-07T08:23:32;21.60;90.60
10062;DHT22;5070;52.382;5.270;2023-05-07T08:26:01;21.60;90.30
10062;DHT22;5070;52.382;5.270;2023-05-07T08:28:29;21.60;90.40
10062;DHT22;5070;52.382;5.270;2023-05-07T08:31:00;21.60;90.50
10062;DHT22;5070;52.382;5.270;2023-05-07T08:33:36;21.60;90.30
10062;DHT22;5070;52.382;5.270;2023-05-07T08:36:11;21.60;90.70
10062;DHT22;5070;52.382;5.270;2023-05-07T08:38:40;21.60;90.40
10062;DHT22;5070;52.382;5.270;2023-05-07T08:41:10;21.60;90.40
10062;DHT22;5070;52.382;5.270;2023-05-07T08:43:47;21.60;90.70
10062;DHT22;5070;52.382;5.270;2023-05-07T08:46:25;21.70;91.10
10062;DHT22;5070;52.382;5.270;2023-05-07T08:48:55;21.70;90.70
10062;DHT22;5070;52.382;5.270;2023-05-07T08:51:23;21.70;90.40
10062;DHT22;5070;52.382;5.270;2023-05-07T08:53:53;21.70;90.70
10062;DHT22;5070;52.382;5.270;2023-05-07T08:56:25;21.70;90.60
10062;DHT22;5070;52.382;5.270;2023-05-07T08:58:54;21.70;90.40
10062;DHT22;5070;52.382;5.270;2023-05-07T09:01:24;21.70;90.20
10062;DHT22;5070;52.382;5.270;2023-05-07T09:03:54;21.70;90.90
10062;DHT22;5070;52.382;5.270;2023-05-07T09:06:23;21.70;87.40
10062;DHT22;5070;52.382;5.270;2023-05-07T09:08:54;21.70;89.80
10062;DHT22;5070;52.382;5.270;2023-05-07T09:11:25;21.70;90.30
10062;DHT22;5070;52.382;5.270;2023-05-07T09:13:57;21.70;90.60
10062;DHT22;5070;52.382;5.270;2023-05-07T09:16:30;21.70;90.80
10062;DHT22;5070;52.382;5.270;2023-05-07T09:18:59;21.70;91.20
10062;DHT22;5070;52.382;5.270;2023-05-07T09:21:27;21.70;91.30
10062;DHT22;5070;52.382;5.270;2023-05-07T09:23:59;21.70;91.40
10062;DHT22;5070;52.382;5.270;2023-05-07T09:26:33;21.70;91.50
10062;DHT22;5070;52.382;5.270;2023-05-07T09:29:04;21.70;91.30
10062;DHT22;5070;52.382;5.270;2023-05-07T09:31:36;21.70;91.00
10062;DHT22;5070;52.382;5.270;2023-05-07T09:34:05;21.70;90.30
10062;DHT22;5070;52.382;5.270;2023-05-07T09:36:35;21.70;90.10
10062;DHT22;5070;52.382;5.270;2023-05-07T09:39:05;21.70;90.40
10062;DHT22;5070;52.382;5.270;2023-05-07T09:41:43;21.70;90.70
10062;DHT22;5070;52.382;5.270;2023-05-07T09:44:20;21.80;90.50
10062;DHT22;5070;52.382;5.270;2023-05-07T09:46:54;21.80;90.80
10062;DHT22;5070;52.382;5.270;2023-05-07T09:49:33;21.80;90.70
10062;DHT22;5070;52.382;5.270;2023-05-07T09:52:05;21.80;90.30
10062;DHT22;5070;52.382;5.270;2023-05-07T09:54:40;21.80;90.70
10062;DHT22;5070;52.382;5.270;2023-05-07T09:57:11;21.80;90.30
10062;DHT22;5070;52.382;5.270;2023-05-07T09:59:42;21.80;90.50
10062;DHT22;5070;52.382;5.270;2023-05-07T10:02:14;21.80;90.40
10062;DHT22;5070;52.382;5.270;2023-05-07T10:04:48;21.80;90.50
10062;DHT22;5070;52.382;5.270;2023-05-07T10:07:24;21.80;90.60
10062;DHT22;5070;52.382;5.270;2023-05-07T10:09:59;21.80;90.50
10062;DHT22;5070;52.382;5.270;2023-05-07T10:12:34;21.80;91.00
10062;DHT22;5070;52.382;5.270;2023-05-07T10:15:11;21.80;91.30
10062;DHT22;5070;52.382;5.270;2023-05-07T10:17:44;21.80;91.20
10062;DHT22;5070;52.382;5.270;2023-05-07T10:20:13;21.80;91.20
10062;DHT22;5070;52.382;5.270;2023-05-07T10:22:46;21.90;91.20
10062;DHT22;5070;52.382;5.270;2023-05-07T10:25:25;21.90;91.00
10062;DHT22;5070;52.382;5.270;2023-05-07T10:27:55;21.90;90.90
10062;DHT22;5070;52.382;5.270;2023-05-07T10:30:33;21.90;91.20
10062;DHT22;5070;52.382;5.270;2023-05-07T10:33:07;21.90;91.10
10062;DHT22;5070;52.382;5.270;2023-05-07T10:35:44;21.90;90.90
10062;DHT22;5070;52.382;5.270;2023-05-07T10:38:16;21.90;90.50
10062;DHT22;5070;52.382;5.270;2023-05-07T10:40:47;21.90;90.60
10062;DHT22;5070;52.382;5.270;2023-05-07T10:43:17;21.90;90.50
10062;DHT22;5070;52.382;5.270;2023-05-07T10:46:11;21.90;90.70
10062;DHT22;5070;52.382;5.270;2023-05-07T10:49:08;21.90;90.90
10062;DHT22;5070;52.382;5.270;2023-05-07T10:51:44;22.00;90.30
10062;DHT22;5070;52.382;5.270;2023-05-07T10:54:23;22.00;90.50
10062;DHT22;5070;52.382;5.270;2023-05-07T10:57:34;22.00;91.00
10062;DHT22;5070;52.382;5.270;2023-05-07T11:00:42;22.00;90.80
10062;DHT22;5070;52.382;5.270;2023-05-07T11:03:22;22.00;90.40
10062;DHT22;5070;52.382;5.270;2023-05-07T11:06:11;22.00;90.30
10062;DHT22;5070;52.382;5.270;2023-05-07T11:08:55;22.00;90.50
10062;DHT22;5070;52.382;5.270;2023-05-07T11:11:46;22.00;90.10
10062;DHT22;5070;52.382;5.270;2023-05-07T11:14:47;22.00;90.20
10062;DHT22;5070;52.382;5.270;2023-05-07T11:17:28;22.00;90.10
10062;DHT22;5070;52.382;5.270;2023-05-07T11:20:09;22.10;90.50
10062;DHT22;5070;52.382;5.270;2023-05-07T11:22:44;22.10;90.40
10062;DHT22;5070;52.382;5.270;2023-05-07T11:25:22;22.10;90.40
10062;DHT22;5070;52.382;5.270;2023-05-07T11:28:05;22.10;90.00
10062;DHT22;5070;52.382;5.270;2023-05-07T11:31:02;22.10;90.60
10062;DHT22;5070;52.382;5.270;2023-05-07T11:33:31;22.10;90.30
10062;DHT22;5070;52.382;5.270;2023-05-07T11:36:05;22.10;90.30
10062;DHT22;5070;52.382;5.270;2023-05-07T11:38:40;22.10;90.70
10062;DHT22;5070;52.382;5.270;2023-05-07T11:41:08;22.20;90.20
10062;DHT22;5070;52.382;5.270;2023-05-07T11:43:40;22.20;90.40
10062;DHT22;5070;52.382;5.270;2023-05-07T11:46:22;22.20;90.00
10062;DHT22;5070;52.382;5.270;2023-05-07T11:48:50;22.20;90.80
10062;DHT22;5070;52.382;5.270;2023-05-07T11:51:22;22.20;90.10
10062;DHT22;5070;52.382;5.270;2023-05-07T11:53:51;22.20;89.90
10062;DHT22;5070;52.382;5.270;2023-05-07T11:56:21;22.20;90.50
10062;DHT22;5070;52.382;5.270;2023-05-07T11:58:49;22.20;90.70
10062;DHT22;5070;52.382;5.270;2023-05-07T12:01:18;22.20;90.30
10062;DHT22;5070;52.382;5.270;2023-05-07T12:03:48;22.20;91.00
10062;DHT22;5070;52.382;5.270;2023-05-07T12:06:17;22.20;90.80
10062;DHT22;5070;52.382;5.270;2023-05-07T12:08:51;22.20;90.50
10062;DHT22;5070;52.382;5.270;2023-05-07T12:11:23;22.30;90.80
10062;DHT22;5070;52.382;5.270;2023-05-07T12:13:51;22.20;90.30
10062;DHT22;5070;52.382;5.270;2023-05-07T12:16:25;22.20;91.00
10062;DHT22;5070;52.382;5.270;2023-05-07T12:18:58;22.30;91.30
10062;DHT22;5070;52.382;5.270;2023-05-07T12:21:30;22.30;90.50
10062;DHT22;5070;52.382;5.270;2023-05-07T12:23:58;22.30;91.00
10062;DHT22;5070;52.382;5.270;2023-05-07T12:26:26;22.30;90.90
10062;DHT22;5070;52.382;5.270;2023-05-07T12:28:54;22.20;90.40
10062;DHT22;5070;52.382;5.270;2023-05-07T12:31:22;22.30;91.00
10062;DHT22;5070;52.382;5.270;2023-05-07T12:33:50;22.30;90.70
10062;DHT22;5070;52.382;5.270;2023-05-07T12:36:20;22.30;90.90
10062;DHT22;5070;52.382;5.270;2023-05-07T12:38:49;22.30;91.30
10062;DHT22;5070;52.382;5.270;2023-05-07T12:41:19;22.30;91.30
10062;DHT22;5070;52.382;5.270;2023-05-07T12:43:56;22.30;89.50
10062;DHT22;5070;52.382;5.270;2023-05-07T12:46:25;22.20;88.10
10062;DHT22;5070;52.382;5.270;2023-05-07T12:48:53;22.20;88.10
10062;DHT22;5070;52.382;5.270;2023-05-07T12:51:22;22.10;88.50
10062;DHT22;5070;52.382;5.270;2023-05-07T12:53:50;22.10;88.50
10062;DHT22;5070;52.382;5.270;2023-05-07T12:56:23;22.10;90.00
10062;DHT22;5070;52.382;5.270;2023-05-07T12:58:51;22.10;90.20
10062;DHT22;5070;52.382;5.270;2023-05-07T13:01:19;22.10;90.20
10062;DHT22;5070;52.382;5.270;2023-05-07T13:03:49;22.10;90.30
10062;DHT22;5070;52.382;5.270;2023-05-07T13:06:18;22.10;90.60
10062;DHT22;5070;52.382;5.270;2023-05-07T13:08:47;22.20;90.50
10062;DHT22;5070;52.382;5.270;2023-05-07T13:11:15;22.10;90.50
10062;DHT22;5070;52.382;5.270;2023-05-07T13:13:43;22.20;90.90
10062;DHT22;5070;52.382;5.270;2023-05-07T13:16:11;22.20;90.90
10062;DHT22;5070;52.382;5.270;2023-05-07T13:18:40;22.20;91.00
10062;DHT22;5070;52.382;5.270;2023-05-07T13:21:10;22.20;91.30
10062;DHT22;5070;52.382;5.270;2023-05-07T13:23:40;22.20;91.50
10062;DHT22;5070;52.382;5.270;2023-05-07T13:26:09;22.20;91.40
10062;DHT22;5070;52.382;5.270;2023-05-07T13:28:52;22.20;91.60
10062;DHT22;5070;52.382;5.270;2023-05-07T13:31:20;22.20;91.70
10062;DHT22;5070;52.382;5.270;2023-05-07T13:33:49;22.20;91.50
10062;DHT22;5070;52.382;5.270;2023-05-07T13:36:17;22.20;91.50
10062;DHT22;5070;52.382;5.270;2023-05-07T13:38:45;22.20;91.40
10062;DHT22;5070;52.382;5.270;2023-05-07T13:41:15;22.20;91.50
10062;DHT22;5070;52.382;5.270;2023-05-07T13:43:43;22.20;91.60
10062;DHT22;5070;52.382;5.270;2023-05-07T13:46:11;22.20;91.30
10062;DHT22;5070;52.382;5.270;2023-05-07T13:48:39;22.30;91.70
10062;DHT22;5070;52.382;5.270;2023-05-07T13:51:11;22.20;91.50
10062;DHT22;5070;52.382;5.270;2023-05-07T13:53:38;22.30;91.40
10062;DHT22;5070;52.382;5.270;2023-05-07T13:56:06;22.20;91.20
10062;DHT22;5070;52.382;5.270;2023-05-07T13:58:36;22.30;91.60
10062;DHT22;5070;52.382;5.270;2023-05-07T14:01:22;22.20;91.20
10062;DHT22;5070;52.382;5.270;2023-05-07T14:03:50;22.20;91.30
10062;DHT22;5070;52.382;5.270;2023-05-07T14:06:18;22.20;91.10
10062;DHT22;5070;52.382;5.270;2023-05-07T14:08:46;22.20;91.10
10062;DHT22;5070;52.382;5.270;2023-05-07T14:11:14;22.30;91.40
10062;DHT22;5070;52.382;5.270;2023-05-07T14:13:43;22.30;91.20
10062;DHT22;5070;52.382;5.270;2023-05-07T14:16:11;22.30;91.40
10062;DHT22;5070;52.382;5.270;2023-05-07T14:18:39;22.30;91.30
10062;DHT22;5070;52.382;5.270;2023-05-07T14:21:07;22.30;91.50
10062;DHT22;5070;52.382;5.270;2023-05-07T14:23:36;22.30;91.10
10062;DHT22;5070;52.382;5.270;2023-05-07T14:26:04;22.30;90.90
10062;DHT22;5070;52.382;5.270;2023-05-07T14:28:32;22.30;91.30
10062;DHT22;5070;52.382;5.270;2023-05-07T14:31:01;22.30;91.20
10062;DHT22;5070;52.382;5.270;2023-05-07T14:33:29;22.30;91.50
10062;DHT22;5070;52.382;5.270;2023-05-07T14:35:57;22.30;91.30
10062;DHT22;5070;52.382;5.270;2023-05-07T14:38:25;22.30;91.50
10062;DHT22;5070;52.382;5.270;2023-05-07T14:40:53;22.30;91.40
10062;DHT22;5070;52.382;5.270;2023-05-07T14:43:22;22.30;91.10
10062;DHT22;5070;52.382;5.270;2023-05-07T14:45:51;22.30;91.30
10062;DHT22;5070;52.382;5.270;2023-05-07T14:48:21;22.30;91.30
10062;DHT22;5070;52.382;5.270;2023-05-07T14:50:49;22.30;91.40
10062;DHT22;5070;52.382;5.270;2023-05-07T14:53:16;22.30;91.30
10062;DHT22;5070;52.382;5.270;2023-05-07T14:55:44;22.30;91.30
10062;DHT22;5070;52.382;5.270;2023-05-07T14:58:13;22.30;91.20
10062;DHT22;5070;52.382;5.270;2023-05-07T15:00:41;22.30;91.40
10062;DHT22;5070;52.382;5.270;2023-05-07T15:03:09;22.30;91.30
10062;DHT22;5070;52.382;5.270;2023-05-07T15:05:42;22.30;91.20
10062;DHT22;5070;52.382;5.270;2023-05-07T15:08:10;22.30;91.30
10062;DHT22;5070;52.382;5.270;2023-05-07T15:10:38;22.20;91.10
10062;DHT22;5070;52.382;5.270;2023-05-07T15:13:08;22.30;91.30
10062;DHT22;5070;52.382;5.270;2023-05-07T15:15:42;22.30;91.60
10062;DHT22;5070;52.382;5.270;2023-05-07T15:18:12;22.30;91.50
10062;DHT22;5070;52.382;5.270;2023-05-07T15:20:43;22.30;91.20
10062;DHT22;5070;52.382;5.270;2023-05-07T15:23:11;22.30;91.20
10062;DHT22;5070;52.382;5.270;2023-05-07T15:25:43;22.30;91.40
10062;DHT22;5070;52.382;5.270;2023-05-07T15:28:12;22.30;91.80
10062;DHT22;5070;52.382;5.270;2023-05-07T15:30:41;22.30;91.80
10062;DHT22;5070;52.382;5.270;2023-05-07T15:33:08;22.30;91.90
10062;DHT22;5070;52.382;5.270;2023-05-07T15:35:37;22.20;91.80
10062;DHT22;5070;52.382;5.270;2023-05-07T15:38:07;22.20;91.80
10062;DHT22;5070;52.382;5.270;2023-05-07T15:40:35;22.20;91.80
10062;DHT22;5070;52.382;5.270;2023-05-07T15:43:08;22.20;91.90
10062;DHT22;5070;52.382;5.270;2023-05-07T15:45:38;22.20;91.90
10062;DHT22;5070;52.382;5.270;2023-05-07T15:48:09;22.20;91.80
10062;DHT22;5070;52.382;5.270;2023-05-07T15:50:37;22.20;91.70
10062;DHT22;5070;52.382;5.270;2023-05-07T15:53:07;22.20;91.60
10062;DHT22;5070;52.382;5.270;2023-05-07T15:55:35;22.20;91.50
10062;DHT22;5070;52.382;5.270;2023-05-07T15:58:03;22.20;91.40
10062;DHT22;5070;52.382;5.270;2023-05-07T16:00:32;22.20;91.40
10062;DHT22;5070;52.382;5.270;2023-05-07T16:03:02;22.20;91.30
10062;DHT22;5070;52.382;5.270;2023-05-07T16:05:30;22.20;91.60
10062;DHT22;5070;52.382;5.270;2023-05-07T16:07:58;22.20;91.60